createdAt,value
2022-11-21T00:00:59.381Z,260.93
2022-11-21T00:03:26.325Z,267.03
2022-11-21T00:05:53.367Z,249.23
2022-11-21T00:08:21.682Z,231.30
2022-11-21T00:10:48.923Z,245.50
2022-11-21T00:13:20.552Z,240.77
2022-11-21T00:15:48.338Z,234.97
2022-11-21T00:18:15.907Z,232.67
2022-11-21T00:20:43.951Z,264.57
2022-11-21T00:23:11.766Z,250.93
2022-11-21T00:25:39.401Z,241.03
2022-11-21T00:28:06.563Z,241.77
2022-11-21T00:30:33.666Z,237.23
2022-11-21T00:33:00.772Z,250.43
2022-11-21T00:35:28.130Z,247.80
2022-11-21T00:37:55.103Z,254.47
2022-11-21T00:40:22.232Z,255.13
2022-11-21T00:42:49.095Z,254.10
2022-11-21T00:45:21.131Z,258.23
2022-11-21T00:47:49.757Z,247.70
2022-11-21T00:50:16.814Z,248.20
2022-11-21T00:52:43.709Z,243.90
2022-11-21T00:55:10.718Z,240.13
2022-11-21T00:57:37.564Z,246.00
2022-11-21T01:00:06.108Z,238.10
2022-11-21T01:02:33.459Z,243.23
2022-11-21T01:05:00.343Z,227.73
2022-11-21T01:07:27.375Z,235.00
2022-11-21T01:09:54.511Z,252.60
2022-11-21T01:12:21.628Z,253.40
2022-11-21T01:14:48.566Z,252.37
2022-11-21T01:17:15.598Z,253.03
2022-11-21T01:19:42.865Z,261.40
2022-11-21T01:22:09.801Z,263.47
2022-11-21T01:24:36.739Z,275.30
2022-11-21T01:27:03.819Z,281.10
2022-11-21T01:29:30.673Z,279.60
2022-11-21T01:31:57.588Z,269.33
2022-11-21T01:34:24.481Z,262.60
2022-11-21T01:36:51.373Z,294.43
2022-11-21T01:39:18.321Z,291.00
2022-11-21T01:41:45.974Z,309.17
2022-11-21T01:44:43.857Z,298.27
2022-11-21T01:47:11.282Z,302.03
2022-11-21T01:49:38.889Z,306.70
2022-11-21T01:52:18.297Z,306.30
2022-11-21T01:54:48.207Z,274.77
2022-11-21T01:57:17.955Z,269.80
2022-11-21T02:00:05.616Z,276.00
2022-11-21T02:02:39.491Z,286.20
2022-11-21T02:05:09.216Z,269.53
2022-11-21T02:07:41.078Z,269.13
2022-11-21T02:10:09.857Z,269.83
2022-11-21T02:12:58.140Z,273.63
2022-11-21T02:15:27.957Z,252.50
2022-11-21T02:17:55.317Z,260.37
2022-11-21T02:20:27.318Z,263.10
2022-11-21T02:23:11.105Z,268.67
2022-11-21T02:25:41.534Z,256.50
2022-11-21T02:28:19.323Z,259.03
2022-11-21T02:30:46.424Z,242.60
2022-11-21T02:33:14.067Z,258.77
2022-11-21T02:35:41.595Z,258.37
2022-11-21T02:38:13.793Z,254.50
2022-11-21T02:40:44.267Z,258.53
2022-11-21T02:43:22.636Z,264.33
2022-11-21T02:45:49.707Z,247.37
2022-11-21T02:48:16.699Z,268.07
2022-11-21T02:50:45.678Z,244.70
2022-11-21T02:53:17.851Z,247.63
2022-11-21T02:55:45.637Z,242.10
2022-11-21T02:58:12.919Z,249.57
2022-11-21T03:00:41.821Z,241.03
2022-11-21T03:03:09.370Z,246.10
2022-11-21T03:05:37.209Z,254.80
2022-11-21T03:08:05.207Z,232.17
2022-11-21T03:10:32.559Z,233.70
2022-11-21T03:13:02.828Z,251.67
2022-11-21T03:15:34.354Z,220.93
2022-11-21T03:18:03.189Z,219.10
2022-11-21T03:20:31.516Z,252.97
2022-11-21T03:22:58.458Z,249.00
2022-11-21T03:25:25.538Z,246.80
2022-11-21T03:27:58.907Z,250.23
2022-11-21T03:30:27.397Z,239.17
2022-11-21T03:32:57.958Z,208.43
2022-11-21T03:35:25.567Z,198.27
2022-11-21T03:37:52.713Z,202.53
2022-11-21T03:40:19.804Z,218.47
2022-11-21T03:42:46.777Z,222.20
2022-11-21T03:45:13.724Z,208.73
2022-11-21T03:47:41.058Z,214.00
2022-11-21T03:50:08.379Z,193.70
2022-11-21T03:52:35.305Z,204.17
2022-11-21T03:55:02.122Z,211.67
2022-11-21T03:57:29.091Z,203.33
2022-11-21T03:59:55.944Z,200.80
2022-11-21T04:02:22.878Z,195.47
2022-11-21T04:04:49.828Z,203.63
2022-11-21T04:07:16.949Z,210.33
2022-11-21T04:09:43.842Z,202.77
2022-11-21T04:12:10.715Z,209.13
2022-11-21T04:14:37.613Z,217.93
2022-11-21T04:17:04.818Z,230.13
2022-11-21T04:19:31.676Z,226.10
2022-11-21T04:21:58.641Z,238.43
2022-11-21T04:24:25.751Z,257.87
2022-11-21T04:26:55.051Z,248.23
2022-11-21T04:29:21.981Z,258.83
2022-11-21T04:31:48.803Z,266.47
2022-11-21T04:34:15.851Z,264.77
2022-11-21T04:36:42.858Z,273.40
2022-11-21T04:39:09.830Z,283.10
2022-11-21T04:41:37.052Z,262.97
2022-11-21T04:44:04.158Z,268.87
2022-11-21T04:46:31.030Z,274.47
2022-11-21T04:48:58.045Z,266.20
2022-11-21T04:51:24.913Z,263.60
2022-11-21T04:53:54.318Z,254.60
2022-11-21T04:56:21.239Z,260.00
2022-11-21T04:58:51.650Z,268.13
2022-11-21T05:01:18.535Z,274.17
2022-11-21T05:03:45.379Z,260.80
2022-11-21T05:06:12.266Z,290.03
2022-11-21T05:08:39.277Z,271.27
2022-11-21T05:11:24.629Z,265.17
2022-11-21T05:13:54.159Z,250.70
2022-11-21T05:16:21.131Z,240.63
2022-11-21T05:18:48.107Z,226.17
2022-11-21T05:21:14.996Z,216.77
2022-11-21T05:23:41.929Z,228.17
2022-11-21T05:26:08.769Z,216.93
2022-11-21T05:28:35.636Z,216.40
2022-11-21T05:31:02.462Z,222.50
2022-11-21T05:33:29.329Z,209.47
2022-11-21T05:35:56.299Z,207.67
2022-11-21T05:38:23.173Z,210.57
2022-11-21T05:40:53.095Z,210.80
2022-11-21T05:43:38.796Z,198.10
2022-11-21T05:46:05.723Z,200.73
2022-11-21T05:48:34.279Z,220.30
2022-11-21T05:51:01.184Z,203.07
2022-11-21T05:53:28.065Z,198.53
2022-11-21T05:55:54.971Z,191.47
2022-11-21T05:58:21.829Z,200.50
2022-11-21T06:00:48.747Z,219.03
2022-11-21T06:03:27.718Z,205.87
2022-11-21T06:06:24.831Z,201.43
2022-11-21T06:08:51.938Z,207.97
2022-11-21T06:11:18.848Z,212.70
2022-11-21T06:13:45.974Z,214.33
2022-11-21T06:16:15.047Z,199.63
2022-11-21T06:18:44.193Z,209.87
2022-11-21T06:21:21.366Z,215.30
2022-11-21T06:23:51.325Z,217.00
2022-11-21T06:26:20.962Z,225.67
2022-11-21T06:28:48.922Z,233.13
2022-11-21T06:31:20.944Z,241.53
2022-11-21T06:33:51.550Z,236.50
2022-11-21T06:36:18.783Z,245.77
2022-11-21T06:38:46.336Z,242.03
2022-11-21T06:41:17.922Z,232.13
2022-11-21T06:43:45.419Z,235.20
2022-11-21T06:46:13.057Z,249.00
2022-11-21T06:48:40.723Z,251.43
2022-11-21T06:51:11.301Z,240.20
2022-11-21T06:53:38.206Z,253.80
2022-11-21T06:56:05.624Z,247.10
2022-11-21T06:58:32.717Z,245.23
2022-11-21T07:01:04.766Z,253.70
2022-11-21T07:03:31.895Z,257.67
2022-11-21T07:06:01.851Z,254.30
2022-11-21T07:08:30.282Z,246.10
2022-11-21T07:11:24.223Z,244.57
2022-11-21T07:13:47.936Z,248.67
2022-11-21T07:16:14.948Z,245.03
2022-11-21T07:18:42.715Z,223.33
2022-11-21T07:21:10.061Z,220.53
2022-11-21T07:23:37.302Z,229.43
2022-11-21T07:26:06.748Z,203.73
2022-11-21T07:28:34.431Z,192.93
2022-11-21T07:31:07.135Z,196.50
2022-11-21T07:33:40.183Z,186.20
2022-11-21T07:36:08.142Z,179.13
2022-11-21T07:38:35.000Z,173.80
2022-11-21T07:41:01.968Z,172.13
2022-11-21T07:43:28.992Z,177.97
2022-11-21T07:45:56.700Z,185.80
2022-11-21T07:48:23.833Z,175.33
2022-11-21T07:50:50.716Z,168.10
2022-11-21T07:53:18.022Z,178.50
2022-11-21T07:55:44.977Z,177.77
2022-11-21T07:58:15.507Z,179.15
2022-11-21T08:00:43.152Z,173.50
2022-11-21T08:03:12.366Z,177.20
2022-11-21T08:05:41.846Z,169.68
2022-11-21T08:08:10.294Z,166.13
2022-11-21T08:10:42.168Z,172.13
2022-11-21T08:13:09.739Z,165.20
2022-11-21T08:15:37.340Z,168.85
2022-11-21T08:18:12.142Z,169.98
2022-11-21T08:20:39.877Z,160.90
2022-11-21T08:23:07.264Z,160.80
2022-11-21T08:25:38.405Z,165.48
2022-11-21T08:28:05.953Z,155.40
2022-11-21T08:30:33.489Z,145.30
2022-11-21T08:33:01.093Z,147.27
2022-11-21T08:35:28.776Z,144.57
2022-11-21T08:38:00.282Z,155.05
2022-11-21T08:40:28.848Z,146.55
2022-11-21T08:42:59.529Z,138.93
2022-11-21T08:45:27.078Z,149.10
2022-11-21T08:47:54.574Z,138.18
2022-11-21T08:50:22.907Z,141.02
2022-11-21T08:52:50.148Z,137.35
2022-11-21T08:55:17.211Z,134.63
2022-11-21T08:57:44.357Z,130.15
2022-11-21T09:00:15.074Z,121.05
2022-11-21T09:02:42.234Z,130.63
2022-11-21T09:05:09.872Z,131.57
2022-11-21T09:07:37.112Z,134.18
2022-11-21T09:10:04.718Z,130.50
2022-11-21T09:12:31.881Z,120.47
2022-11-21T09:15:17.339Z,127.40
2022-11-21T09:18:02.988Z,131.82
2022-11-21T09:20:36.588Z,121.55
2022-11-21T09:23:11.756Z,129.95
2022-11-21T09:25:39.027Z,128.30
2022-11-21T09:28:08.311Z,117.07
2022-11-21T09:30:35.586Z,124.90
2022-11-21T09:33:03.748Z,128.65
2022-11-21T09:35:31.473Z,130.23
2022-11-21T09:37:58.879Z,136.85
2022-11-21T09:40:26.099Z,140.38
2022-11-21T09:43:03.029Z,142.38
2022-11-21T09:45:31.542Z,147.20
2022-11-21T09:47:58.676Z,138.03
2022-11-21T09:50:35.742Z,142.10
2022-11-21T09:53:13.007Z,145.17
2022-11-21T09:55:47.102Z,140.17
2022-11-21T09:58:37.632Z,149.20
2022-11-21T10:01:05.157Z,154.67
2022-11-21T10:03:41.196Z,154.23
2022-11-21T10:06:49.944Z,164.93
2022-11-21T10:09:34.972Z,157.13
2022-11-21T10:12:23.640Z,150.40
2022-11-21T10:14:56.266Z,151.03
2022-11-21T10:17:27.030Z,150.13
2022-11-21T10:19:53.916Z,148.37
2022-11-21T10:22:23.708Z,148.00
2022-11-21T10:25:06.591Z,155.27
2022-11-21T10:27:51.921Z,149.43
2022-11-21T10:30:20.904Z,147.33
2022-11-21T10:33:09.491Z,142.13
2022-11-21T10:35:43.946Z,156.13
2022-11-21T10:38:21.834Z,152.17
2022-11-21T10:41:05.002Z,149.77
2022-11-21T10:44:06.051Z,142.43
2022-11-21T10:46:32.985Z,141.23
2022-11-21T10:49:02.021Z,142.97
2022-11-21T10:51:47.035Z,142.13
2022-11-21T10:54:33.525Z,138.30
2022-11-21T10:57:07.995Z,145.70
2022-11-21T10:59:35.022Z,133.30
2022-11-21T11:02:23.464Z,131.33
2022-11-21T11:05:16.372Z,133.77
2022-11-21T11:08:08.840Z,129.77
2022-11-21T11:11:04.945Z,140.93
2022-11-21T11:13:45.932Z,133.77
2022-11-21T11:16:17.340Z,141.40
2022-11-21T11:19:00.446Z,137.50
2022-11-21T11:21:44.192Z,148.70
2022-11-21T11:24:11.089Z,143.83
2022-11-21T11:26:48.555Z,140.13
2022-11-21T11:29:30.866Z,131.73
2022-11-21T11:31:58.175Z,142.67
2022-11-21T11:34:55.679Z,139.60
2022-11-21T11:37:43.283Z,140.43
2022-11-21T11:40:48.538Z,134.23
2022-11-21T11:44:14.175Z,146.83
2022-11-21T11:47:19.799Z,142.40
2022-11-21T11:50:10.585Z,142.87
2022-11-21T11:53:05.077Z,145.00
2022-11-21T11:55:45.123Z,144.60
2022-11-21T11:58:37.111Z,137.07
2022-11-21T12:01:11.909Z,141.20
2022-11-21T12:03:57.687Z,140.27
2022-11-21T12:07:04.126Z,142.57
2022-11-21T12:09:30.237Z,135.90
2022-11-21T12:12:15.883Z,141.03
2022-11-21T12:15:11.670Z,132.83
2022-11-21T12:17:44.510Z,133.57
2022-11-21T12:20:59.295Z,138.77
2022-11-21T12:23:29.200Z,131.17
2022-11-21T12:26:14.985Z,135.70
2022-11-21T12:29:22.597Z,130.17
2022-11-21T12:32:19.759Z,146.10
2022-11-21T12:35:05.163Z,142.90
2022-11-21T12:38:16.284Z,138.97
2022-11-21T12:41:36.529Z,132.50
2022-11-21T12:44:30.298Z,135.90
2022-11-21T12:47:20.813Z,131.37
2022-11-21T12:50:18.100Z,130.87
2022-11-21T12:53:09.210Z,126.77
2022-11-21T12:55:40.136Z,131.13
2022-11-21T12:58:39.781Z,137.33
2022-11-21T13:01:25.624Z,132.67
2022-11-21T13:04:02.174Z,130.90
2022-11-21T13:06:40.434Z,129.67
2022-11-21T13:09:13.731Z,130.43
2022-11-21T13:11:58.957Z,132.23
2022-11-21T13:14:37.537Z,136.00
2022-11-21T13:17:13.443Z,136.97
2022-11-21T13:20:12.898Z,131.50
2022-11-21T13:22:39.725Z,127.13
2022-11-21T13:25:13.375Z,129.73
2022-11-21T13:27:40.994Z,130.73
2022-11-21T13:30:07.907Z,129.43
2022-11-21T13:32:41.700Z,138.80
2022-11-21T13:35:15.006Z,142.13
2022-11-21T13:38:07.102Z,138.73
2022-11-21T13:40:36.663Z,140.80
2022-11-21T13:45:59.943Z,143.83
2022-11-21T13:48:57.029Z,133.23
2022-11-21T13:51:50.685Z,147.07
2022-11-21T13:55:01.486Z,146.20
2022-11-21T13:57:46.549Z,143.13
2022-11-21T14:00:58.623Z,139.60
2022-11-21T14:03:53.881Z,135.73
2022-11-21T14:06:43.238Z,142.07
2022-11-21T14:09:13.107Z,135.80
2022-11-21T14:12:08.557Z,139.27
2022-11-21T14:15:01.713Z,147.77
2022-11-21T14:17:56.681Z,149.97
2022-11-21T14:20:26.470Z,149.47
2022-11-21T14:23:05.441Z,146.43
2022-11-21T14:25:49.215Z,145.57
2022-11-21T14:28:23.347Z,152.37
2022-11-21T14:30:58.274Z,149.93
2022-11-21T14:33:27.003Z,153.97
2022-11-21T14:36:08.058Z,145.33
2022-11-21T14:39:07.450Z,143.30
2022-11-21T14:41:39.167Z,125.27
2022-11-21T14:44:15.954Z,102.37
2022-11-21T14:46:44.597Z,100.20
2022-11-21T14:49:17.314Z,118.57
2022-11-21T14:52:16.168Z,119.57
2022-11-21T14:55:22.454Z,122.90
2022-11-21T14:57:42.200Z,132.30
2022-11-21T15:00:36.002Z,136.50
2022-11-21T15:03:01.380Z,137.60
2022-11-21T15:06:00.615Z,130.07
2022-11-21T15:08:59.414Z,134.97
2022-11-21T15:11:13.608Z,148.87
2022-11-21T15:14:06.462Z,139.90
2022-11-21T15:16:29.117Z,139.70
2022-11-21T15:18:56.571Z,151.27
2022-11-21T15:21:23.614Z,145.47
2022-11-21T15:23:51.524Z,143.37
2022-11-21T15:26:33.459Z,144.03
2022-11-21T15:29:01.583Z,133.77
2022-11-21T15:31:28.719Z,132.80
2022-11-21T15:34:34.403Z,135.37
2022-11-21T15:37:12.227Z,141.90
2022-11-21T15:39:48.416Z,132.17
2022-11-21T15:42:27.759Z,134.77
2022-11-21T15:45:02.226Z,130.03
2022-11-21T15:47:29.170Z,102.03
2022-11-21T15:49:56.047Z,102.60
2022-11-21T15:52:23.534Z,106.17
2022-11-21T15:54:50.545Z,91.53
2022-11-21T15:59:47.153Z,104.70
2022-11-21T16:02:14.641Z,92.87
2022-11-21T16:04:42.218Z,89.53
2022-11-21T16:07:09.298Z,88.47
2022-11-21T16:09:37.420Z,88.30
2022-11-21T16:12:05.626Z,86.77
2022-11-21T16:14:32.579Z,78.23
2022-11-21T16:16:59.481Z,78.17
2022-11-21T16:19:26.721Z,80.17
2022-11-21T16:21:53.932Z,74.00
2022-11-21T16:24:20.860Z,78.17
2022-11-21T16:26:49.317Z,76.33
2022-11-21T16:29:16.236Z,75.93
2022-11-21T16:31:43.240Z,75.03
2022-11-21T16:34:10.103Z,74.93
2022-11-21T16:36:37.695Z,80.83
2022-11-21T16:39:09.959Z,78.53
2022-11-21T16:41:39.490Z,85.20
2022-11-21T16:44:13.980Z,85.33
2022-11-21T16:46:48.403Z,94.07
2022-11-21T16:49:15.334Z,86.33
2022-11-21T16:51:42.240Z,85.97
2022-11-21T16:54:09.678Z,95.10
2022-11-21T16:56:37.609Z,90.30
2022-11-21T16:59:04.832Z,106.20
2022-11-21T17:01:32.036Z,110.57
2022-11-21T17:03:59.218Z,115.23
2022-11-21T17:06:29.903Z,126.73
2022-11-21T17:08:58.709Z,131.17
2022-11-21T17:11:29.439Z,127.63
2022-11-21T17:13:59.917Z,130.57
2022-11-21T17:16:27.125Z,127.63
2022-11-21T17:18:55.130Z,120.30
2022-11-21T17:21:22.774Z,137.17
2022-11-21T17:23:50.538Z,127.83
2022-11-21T17:26:23.396Z,134.47
2022-11-21T17:28:55.332Z,122.13
2022-11-21T17:31:22.460Z,115.63
2022-11-21T17:33:54.443Z,118.63
2022-11-21T17:36:24.402Z,112.53
2022-11-21T17:38:52.531Z,115.63
2022-11-21T17:41:21.528Z,117.43
2022-11-21T17:43:49.227Z,115.27
2022-11-21T17:46:18.190Z,110.73
2022-11-21T17:48:51.486Z,106.50
2022-11-21T17:51:26.980Z,116.97
2022-11-21T17:53:54.510Z,119.80
2022-11-21T17:56:24.268Z,128.63
2022-11-21T17:58:52.200Z,126.47
2022-11-21T18:01:20.109Z,135.77
2022-11-21T18:03:58.780Z,126.83
2022-11-21T18:06:28.569Z,126.80
2022-11-21T18:08:59.475Z,126.33
2022-11-21T18:11:36.045Z,120.83
2022-11-21T18:14:07.698Z,122.80
2022-11-21T18:16:34.714Z,128.80
2022-11-21T18:19:02.401Z,115.87
2022-11-21T18:21:31.435Z,118.33
2022-11-21T18:23:59.656Z,115.83
2022-11-21T18:26:32.148Z,127.20
2022-11-21T18:31:48.698Z,115.90
2022-11-21T18:34:15.587Z,112.30
2022-11-21T18:36:42.743Z,113.37
2022-11-21T18:39:14.788Z,117.50
2022-11-21T18:41:45.462Z,110.20
2022-11-21T18:44:20.102Z,101.87
2022-11-21T18:46:49.297Z,104.37
2022-11-21T18:49:16.162Z,95.33
2022-11-21T18:51:43.067Z,82.73
2022-11-21T18:54:11.275Z,83.60
2022-11-21T18:56:39.244Z,110.00
2022-11-21T18:59:07.055Z,108.40
2022-11-21T19:01:35.947Z,114.33
2022-11-21T19:04:03.712Z,105.77
2022-11-21T19:06:30.584Z,114.63
2022-11-21T19:08:58.483Z,109.13
2022-11-21T19:11:27.853Z,114.03
2022-11-21T19:13:56.430Z,113.43
2022-11-21T19:16:26.350Z,118.20
2022-11-21T19:21:42.407Z,113.87
2022-11-21T19:24:14.137Z,115.53
2022-11-21T19:26:41.984Z,121.53
2022-11-21T19:29:09.543Z,124.67
2022-11-21T19:31:42.937Z,123.80
2022-11-21T19:34:15.239Z,116.63
2022-11-21T19:36:42.407Z,113.17
2022-11-21T19:39:09.437Z,119.07
2022-11-21T19:41:36.956Z,126.07
2022-11-21T19:44:04.005Z,115.70
2022-11-21T19:46:35.268Z,116.13
2022-11-21T19:49:03.151Z,118.67
2022-11-21T19:51:32.512Z,109.67
2022-11-21T19:54:01.480Z,102.17
2022-11-21T19:56:28.390Z,104.70
2022-11-21T19:58:56.934Z,109.50
2022-11-21T20:01:28.981Z,92.20
2022-11-21T20:03:59.168Z,80.90
2022-11-21T20:06:28.740Z,90.60
2022-11-21T20:08:57.869Z,81.27
2022-11-21T20:11:26.832Z,77.47
2022-11-21T20:13:54.338Z,78.30
2022-11-21T20:16:24.100Z,78.53
2022-11-21T20:18:52.167Z,79.10
2022-11-21T20:21:19.845Z,83.93
2022-11-21T20:23:47.352Z,88.57
2022-11-21T20:26:15.672Z,96.17
2022-11-21T20:28:42.670Z,93.73
2022-11-21T20:31:18.569Z,86.03
2022-11-21T20:33:50.655Z,84.80
2022-11-21T20:36:20.208Z,83.53
2022-11-21T20:38:51.611Z,90.73
2022-11-21T20:41:19.577Z,101.83
2022-11-21T20:44:41.693Z,100.43
2022-11-21T20:46:34.869Z,97.73
2022-11-21T20:49:02.616Z,100.77
2022-11-21T20:54:16.493Z,102.43
2022-11-21T20:56:44.618Z,98.47
2022-11-21T20:59:12.077Z,96.53
2022-11-21T21:01:39.048Z,96.13
2022-11-21T21:04:06.421Z,95.17
2022-11-21T21:06:33.287Z,99.90
2022-11-21T21:09:00.295Z,95.33
2022-11-21T21:14:14.110Z,91.53
2022-11-21T21:16:41.042Z,93.20
2022-11-21T21:19:07.900Z,89.50
2022-11-21T21:21:35.290Z,88.17
2022-11-21T21:24:06.770Z,83.70
2022-11-21T21:26:41.741Z,86.23
2022-11-21T21:29:15.172Z,84.20
2022-11-21T21:31:47.180Z,79.07
2022-11-21T21:34:17.200Z,79.37
2022-11-21T21:36:44.245Z,77.10
2022-11-21T21:39:11.098Z,79.77
2022-11-21T21:41:40.226Z,88.57
2022-11-21T21:44:07.444Z,89.73
2022-11-21T21:46:34.348Z,87.30
2022-11-21T21:49:01.608Z,91.17
2022-11-21T21:51:30.132Z,97.77
2022-11-21T21:53:59.246Z,94.93
2022-11-21T21:56:27.893Z,91.27
2022-11-21T21:58:56.979Z,99.20
2022-11-21T22:01:27.093Z,99.90
2022-11-21T22:03:56.380Z,93.90
2022-11-21T22:06:23.278Z,95.23
2022-11-21T22:08:50.815Z,92.47
2022-11-21T22:11:24.939Z,89.13
2022-11-21T22:13:56.720Z,87.13
2022-11-21T22:16:24.724Z,84.77
2022-11-21T22:18:51.851Z,85.20
2022-11-21T22:21:33.059Z,88.60
2022-11-21T22:26:52.687Z,80.87
2022-11-21T22:29:19.666Z,87.87
2022-11-21T22:31:46.625Z,84.00
2022-11-21T22:34:14.209Z,79.57
2022-11-21T22:36:41.804Z,84.47
2022-11-21T22:39:09.156Z,87.80
2022-11-21T22:41:36.143Z,95.07
2022-11-21T22:44:03.137Z,96.10
2022-11-21T22:46:31.074Z,96.27
2022-11-21T22:48:58.314Z,93.93
2022-11-21T22:51:29.497Z,100.17
2022-11-21T22:53:56.988Z,100.23
2022-11-21T22:56:25.393Z,98.37
2022-11-21T22:58:53.120Z,94.20
2022-11-21T23:01:22.286Z,95.37
2022-11-21T23:03:49.613Z,90.63
2022-11-21T23:06:19.145Z,94.30
2022-11-21T23:08:47.106Z,94.43
2022-11-21T23:11:15.135Z,96.57
2022-11-21T23:13:44.050Z,93.13
2022-11-21T23:16:12.643Z,87.17
2022-11-21T23:18:39.895Z,93.77
2022-11-21T23:21:07.625Z,92.43
2022-11-21T23:23:35.771Z,81.00
2022-11-21T23:26:03.635Z,83.07
2022-11-21T23:28:31.199Z,82.67
2022-11-21T23:30:58.333Z,83.40
2022-11-21T23:33:25.373Z,90.70
2022-11-21T23:35:52.348Z,92.53
2022-11-21T23:38:19.550Z,88.60
2022-11-21T23:40:47.704Z,85.40
2022-11-21T23:43:15.945Z,73.00
2022-11-21T23:45:43.636Z,69.50
2022-11-21T23:48:10.905Z,58.67
2022-11-21T23:50:37.839Z,59.93
2022-11-21T23:53:04.799Z,52.37
2022-11-21T23:55:32.434Z,57.90
2022-11-21T23:57:59.595Z,69.93
